Weather History for Murray, KY

Change the Weather History Date:

Tuesday, March 12, 2013

  Actual Average (KPAH) Record (KPAH)
Temperature  
Mean Temperature 39 °F 47 °F  
Max Temperature 50 °F 58 °F 82 °F (1967)
Min Temperature 28 °F 37 °F 12 °F (1998)
Degree Days  
Heating Degree Days 26 18  
Month to date heating degree days 237  
Since 1 July heating degree days 3533  
Cooling Degree Days 0 0  
Month to date cooling degree days 0  
Year to date cooling degree days 0  
Moisture  
Dew Point 27 °F    
Average Humidity 62    
Maximum Humidity 93    
Minimum Humidity 34    
Precipitation  
Precipitation 0.00 in 0.13 in 2.12 in (1986)
Month to date precipitation 1.43  
Year to date precipitation 9.02  
Snow  
Snow 0.00 in 0.00 in 0.40 in (1968)
Month to date snowfall 0.4  
Since 1 July snowfall 8.9  
Snow Depth -    
Sea Level Pressure  
Sea Level Pressure 30.09 in    
Wind  
Wind Speed 7 mph (WNW)    
Max Wind Speed 16 mph    
Max Gust Speed 22 mph    
Visibility 10 miles    
Events      
T = Trace of Precipitation, MM = Missing Value Source: NWS Daily Summary

Daily Weather History Graph

Daily Weather History Graph

Search for Another Location

Airport:

Trip Planner

Search our weather history database for the weather conditions in past years. The results will help you decide how hot, cold, wet, or windy it might be!

Date:

Astronomy

Mar. 12, 2013 Rise Set
Actual Time 7:08 AM CDT 6:58 PM CDT
Civil Twilight 6:42 AM CDT 7:24 PM CDT
Nautical Twilight 6:12 AM CDT 7:54 PM CDT
Astronomical Twilight 5:42 AM CDT 8:24 PM CDT
Moon 7:17 AM CDT (3/12) 8:09 PM CDT (3/12)
Length of Visible Light 12h 41m
Length of Day
11h 50m
New Moon, 1% of the Moon is Illuminated
Mar 12
New Moon
Mar 19
First Quarter
Mar 27
Full
Apr 2
Last Quarter
Apr 10
New

Hourly Weather History & Observations

Time (CDT) Temp. Windchill Dew Point Humidity Pressure Visibility Wind Dir Wind Speed Gust Speed Precip Events Conditions
12:15 AM 35.6 °F 28.6 °F 28.4 °F 75% 30.01 in 10.0 mi WNW 9.2 mph - N/A   Overcast
12:35 AM 37.4 °F 32.1 °F 28.4 °F 70% 30.01 in 10.0 mi NW 6.9 mph - N/A   Overcast
12:55 AM 37.4 °F 30.8 °F 26.6 °F 65% 30.01 in 10.0 mi NW 9.2 mph - N/A   Overcast
1:15 AM 35.6 °F 29.2 °F 26.6 °F 70% 30.01 in 10.0 mi WNW 8.1 mph - N/A   Mostly Cloudy
1:35 AM 33.8 °F 30.8 °F 26.6 °F 75% 30.01 in 10.0 mi WNW 3.5 mph - N/A   Partly Cloudy
1:55 AM 33.8 °F 30.8 °F 26.6 °F 75% 30.01 in 10.0 mi WNW 3.5 mph - N/A   Clear
2:15 AM 32.0 °F 27.5 °F 26.6 °F 80% 30.02 in 10.0 mi West 4.6 mph - N/A   Clear
2:35 AM 32.0 °F 27.5 °F 26.6 °F 80% 30.01 in 10.0 mi West 4.6 mph - N/A   Clear
2:55 AM 32.0 °F 27.5 °F 26.6 °F 80% 30.01 in 10.0 mi WNW 4.6 mph - N/A   Clear
3:15 AM 32.0 °F 28.7 °F 26.6 °F 80% 30.02 in 10.0 mi West 3.5 mph - N/A   Clear
3:35 AM 32.0 °F 28.7 °F 26.6 °F 80% 30.02 in 10.0 mi WNW 3.5 mph - N/A   Clear
3:55 AM 32.0 °F 28.7 °F 26.6 °F 80% 30.01 in 10.0 mi WNW 3.5 mph - N/A   Clear
4:15 AM 30.2 °F 26.7 °F 26.6 °F 86% 30.02 in 10.0 mi West 3.5 mph - N/A   Clear
4:35 AM 30.2 °F - 26.6 °F 86% 30.01 in 10.0 mi Calm Calm - N/A   Clear
4:55 AM 30.2 °F - 26.6 °F 86% 30.02 in 10.0 mi Calm Calm - N/A   Clear
5:15 AM 30.2 °F 25.4 °F 26.6 °F 86% 30.03 in 10.0 mi West 4.6 mph - N/A   Clear
5:35 AM 28.4 °F 24.6 °F 26.6 °F 93% 30.04 in 10.0 mi West 3.5 mph - N/A   Clear
5:55 AM 28.4 °F 23.3 °F 26.6 °F 93% 30.05 in 10.0 mi West 4.6 mph - N/A   Clear
6:15 AM 30.2 °F 25.4 °F 26.6 °F 86% 30.05 in 10.0 mi West 4.6 mph - N/A   Clear
6:35 AM 28.4 °F 24.6 °F 26.6 °F 93% 30.06 in 10.0 mi WNW 3.5 mph - N/A   Clear
6:55 AM 28.4 °F 24.6 °F 26.6 °F 93% 30.05 in 10.0 mi West 3.5 mph - N/A   Clear
7:15 AM 28.4 °F 23.3 °F 26.6 °F 93% 30.06 in 10.0 mi West 4.6 mph - N/A   Clear
7:35 AM 28.4 °F 22.2 °F 24.8 °F 86% 30.08 in 10.0 mi WNW 5.8 mph - N/A   Clear
7:55 AM 32.0 °F 28.7 °F 28.4 °F 87% 30.09 in 10.0 mi West 3.5 mph - N/A   Clear
8:15 AM 32.0 °F 28.7 °F 28.4 °F 87% 30.09 in 10.0 mi West 3.5 mph - N/A   Clear
8:35 AM 33.8 °F 29.6 °F 28.4 °F 81% 30.10 in 10.0 mi WNW 4.6 mph - N/A   Clear
8:55 AM 35.6 °F 30.7 °F 28.4 °F 75% 30.11 in 10.0 mi WNW 5.8 mph - N/A   Clear
9:15 AM 35.6 °F 29.9 °F 26.6 °F 70% 30.11 in 10.0 mi WNW 6.9 mph - N/A   Clear
9:35 AM 35.6 °F 29.2 °F 26.6 °F 70% 30.12 in 10.0 mi NW 8.1 mph - N/A   Clear
9:55 AM 37.4 °F 30.8 °F 26.6 °F 65% 30.13 in 10.0 mi NW 9.2 mph - N/A   Clear
10:15 AM 37.4 °F 30.3 °F 26.6 °F 65% 30.14 in 10.0 mi NW 10.4 mph - N/A   Clear
10:35 AM 39.2 °F 33.0 °F 26.6 °F 61% 30.13 in 10.0 mi NNW 9.2 mph - N/A   Clear
10:55 AM 39.2 °F 33.0 °F 26.6 °F 61% 30.14 in 10.0 mi WNW 9.2 mph - N/A   Clear
11:15 AM 41.0 °F 35.2 °F 23.0 °F 49% 30.14 in 10.0 mi WNW 9.2 mph - N/A   Clear
11:55 AM 42.8 °F 37.5 °F 23.0 °F 46% 30.15 in 10.0 mi WNW 9.2 mph - N/A   Clear
12:15 PM 44.6 °F 38.4 °F 24.8 °F 46% 30.15 in 10.0 mi West 12.7 mph 17.3 mph N/A   Clear
12:35 PM 44.6 °F 38.8 °F 23.0 °F 43% 30.15 in 10.0 mi West 11.5 mph 17.3 mph N/A   Clear
12:55 PM 46.4 °F 41.5 °F 19.4 °F 34% 30.14 in 10.0 mi WNW 10.4 mph 17.3 mph N/A   Clear
1:15 PM 46.4 °F 41.9 °F 23.0 °F 40% 30.14 in 10.0 mi West 9.2 mph - N/A   Clear
1:35 PM 48.2 °F - 21.2 °F 34% 30.13 in 10.0 mi West 10.4 mph 16.1 mph N/A   Clear
1:55 PM 48.2 °F - 21.2 °F 34% 30.13 in 10.0 mi NW 15.0 mph - N/A   Clear
2:15 PM 50.0 °F - 26.6 °F 40% 30.12 in 10.0 mi WNW 16.1 mph - N/A   Clear
2:35 PM 50.0 °F - 26.6 °F 40% 30.11 in 10.0 mi WNW 15.0 mph - N/A   Clear
2:55 PM 50.0 °F - 26.6 °F 40% 30.11 in 10.0 mi West 10.4 mph - N/A   Partly Cloudy
3:15 PM 50.0 °F - 28.4 °F 43% 30.10 in 10.0 mi WNW 11.5 mph 17.3 mph N/A   Partly Cloudy
3:35 PM 50.0 °F - 28.4 °F 43% 30.10 in 10.0 mi WNW 15.0 mph 18.4 mph N/A   Scattered Clouds
3:55 PM 50.0 °F - 28.4 °F 43% 30.10 in 10.0 mi West 12.7 mph 18.4 mph N/A   Partly Cloudy
4:15 PM 50.0 °F - 30.2 °F 47% 30.09 in 10.0 mi WNW 13.8 mph 17.3 mph N/A   Clear
4:35 PM 50.0 °F - 28.4 °F 43% 30.10 in 10.0 mi WNW 15.0 mph - N/A   Clear
4:55 PM 50.0 °F - 28.4 °F 43% 30.10 in 10.0 mi WNW 11.5 mph - N/A   Clear
5:15 PM 50.0 °F - 28.4 °F 43% 30.10 in 10.0 mi West 12.7 mph 16.1 mph N/A   Clear
5:35 PM 50.0 °F - 28.4 °F 43% 30.10 in 10.0 mi WNW 8.1 mph - N/A   Clear
5:55 PM 48.2 °F - 28.4 °F 46% 30.11 in 10.0 mi West 9.2 mph - N/A   Clear
6:15 PM 48.2 °F - 28.4 °F 46% 30.11 in 10.0 mi West 10.4 mph - N/A   Clear
6:35 PM 46.4 °F 42.4 °F 30.2 °F 53% 30.11 in 10.0 mi West 8.1 mph - N/A   Clear
6:55 PM 44.6 °F 40.2 °F 30.2 °F 57% 30.12 in 10.0 mi West 8.1 mph - N/A   Clear
7:15 PM 44.6 °F 41.4 °F 30.2 °F 57% 30.11 in 10.0 mi WSW 5.8 mph - N/A   Clear
7:35 PM 42.8 °F 40.1 °F 28.4 °F 57% 30.11 in 10.0 mi SW 4.6 mph - N/A   Clear
7:55 PM 42.8 °F 39.3 °F 28.4 °F 57% 30.12 in 10.0 mi SW 5.8 mph - N/A   Clear
8:15 PM 42.8 °F 39.3 °F 28.4 °F 57% 30.12 in 10.0 mi SW 5.8 mph - N/A   Mostly Cloudy
8:35 PM 44.6 °F 40.2 °F 30.2 °F 57% 30.12 in 10.0 mi SW 8.1 mph - N/A   Overcast
8:55 PM 44.6 °F 40.7 °F 28.4 °F 53% 30.13 in 10.0 mi WSW 6.9 mph - N/A   Overcast
9:15 PM 44.6 °F 42.2 °F 30.2 °F 57% 30.13 in 10.0 mi West 4.6 mph - N/A   Overcast
9:35 PM 44.6 °F 41.4 °F 30.2 °F 57% 30.14 in 10.0 mi WSW 5.8 mph - N/A   Overcast
9:55 PM 44.6 °F 40.7 °F 30.2 °F 57% 30.14 in 10.0 mi WNW 6.9 mph - N/A   Overcast
10:15 PM 46.4 °F 40.4 °F 28.4 °F 50% 30.14 in 10.0 mi West 13.8 mph 20.7 mph N/A   Overcast
10:35 PM 46.4 °F 40.7 °F 26.6 °F 46% 30.15 in 10.0 mi WNW 12.7 mph 21.9 mph N/A   Overcast
10:55 PM 46.4 °F 40.7 °F 26.6 °F 46% 30.15 in 10.0 mi WNW 12.7 mph 21.9 mph N/A   Overcast
11:15 PM 44.6 °F 39.2 °F 26.6 °F 49% 30.16 in 10.0 mi NW 10.4 mph - N/A   Mostly Cloudy
11:35 PM 44.6 °F 37.8 °F 24.8 °F 46% 30.16 in 10.0 mi NNW 15.0 mph 21.9 mph N/A   Mostly Cloudy
11:55 PM 42.8 °F 37.5 °F 24.8 °F 49% 30.17 in 10.0 mi NNW 9.2 mph - N/A   Partly Cloudy